Time;durP1;ratioP1;P1;durP2;ratioP2;P2;SDS_P1;SDS_P2;PMS_P1;PMS_P2;Temp;Humidity;BMP_temperature;BMP_pressure;BME280_temperature;BME280_humidity;BME280_pressure;Samples;Min_cycle;Max_cycle;Signal;HPM_P1;HPM_P2
2022/10/03 00:02:29;;;;;;;13.13;2.83;;;10.70;99.90;;;;;;5058472;28;20051;-84
2022/10/03 00:05:32;;;;;;;16.27;2.35;;;10.80;99.90;;;;;;5041909;28;20048;-85
2022/10/03 00:08:25;;;;;;;8.98;2.20;;;10.90;99.90;;;;;;5041604;28;20056;-84
2022/10/03 00:10:51;;;;;;;8.80;2.22;;;;;;;;;;5058097;28;20055;-85
2022/10/03 00:13:24;;;;;;;11.13;2.70;;;;;;;;;;5058209;28;20044;-85
2022/10/03 00:16:14;;;;;;;8.00;2.60;;;10.70;99.90;;;;;;5058318;28;20074;-85
2022/10/03 00:18:40;;;;;;;9.75;3.22;;;;;;;;;;5041406;28;20086;-85
2022/10/03 00:21:24;;;;;;;7.53;2.92;;;10.80;99.90;;;;;;5041473;28;20036;-85
2022/10/03 00:23:50;;;;;;;7.60;2.30;;;;;;;;;;5041139;28;20047;-85
2022/10/03 00:26:36;;;;;;;8.35;2.40;;;10.90;99.90;;;;;;5042131;28;20127;-85
2022/10/03 00:29:29;;;;;;;13.00;2.85;;;11.00;99.90;;;;;;5057135;28;20049;-85
2022/10/03 00:32:19;;;;;;;10.07;2.58;;;11.00;99.90;;;;;;5040217;28;20095;-84
2022/10/03 00:35:19;;;;;;;11.93;2.63;;;11.10;99.90;;;;;;5056845;28;20067;-85
2022/10/03 00:37:58;;;;;;;17.85;2.47;;;10.80;99.90;;;;;;5056313;28;20040;-85
2022/10/03 00:41:00;;;;;;;16.90;2.80;;;11.20;99.90;;;;;;5056747;28;20041;-85
2022/10/03 00:44:05;;;;;;;10.02;2.65;;;11.00;99.90;;;;;;5056456;28;20427;-85
2022/10/03 00:46:50;;;;;;;;;;;11.10;99.90;;;;;;5056850;28;20049;-85
2022/10/03 00:49:48;;;;;;;10.48;2.38;;;11.00;99.90;;;;;;5056616;28;19959;-86
2022/10/03 00:52:41;;;;;;;4.75;2.38;;;11.10;99.90;;;;;;4976979;28;20046;-86
2022/10/03 00:55:39;;;;;;;12.77;3.33;;;11.20;99.90;;;;;;4976704;28;20046;-85
2022/10/03 00:58:32;;;;;;;14.93;2.58;;;11.10;99.90;;;;;;4960387;28;20089;-85
2022/10/03 01:01:28;;;;;;;7.15;2.70;;;11.00;99.90;;;;;;4960732;28;20186;-85
2022/10/03 01:04:29;;;;;;;8.85;1.98;;;11.00;99.90;;;;;;4976345;28;20410;-85
2022/10/03 01:07:22;;;;;;;11.18;2.47;;;11.00;99.90;;;;;;4976464;28;20038;-84
2022/10/03 01:09:54;;;;;;;12.98;2.00;;;;;;;;;;4962250;28;20058;-96
2022/10/03 01:12:21;;;;;;;9.77;2.85;;;;;;;;;;4978018;28;20046;-96
2022/10/03 01:15:02;;;;;;;9.40;2.53;;;11.10;99.90;;;;;;4977835;28;20568;-96
2022/10/03 01:17:57;;;;;;;8.10;2.28;;;10.90;99.90;;;;;;4977926;28;20042;-94
2022/10/03 01:20:23;;;;;;;8.50;2.33;;;;;;;;;;4961989;28;20092;-94
2022/10/03 01:22:49;;;;;;;6.55;1.90;;;;;;;;;;4977844;28;20090;-95
2022/10/03 01:25:45;;;;;;;13.13;1.98;;;10.90;99.90;;;;;;4977697;28;20048;-96
2022/10/03 01:31:13;;;;;;;11.32;2.08;;;;;;;;;;5159494;27;1307495;-96
2022/10/03 01:33:42;;;;;;;14.98;3.63;;;;;;;;;;5168067;27;20046;-90
2022/10/03 01:36:11;;;;;;;16.20;3.22;;;;;;;;;;5149824;27;20046;-95
2022/10/03 01:38:41;;;;;;;11.68;2.90;;;;;;;;;;5146645;27;20053;-88
2022/10/03 01:41:21;;;;;;;12.90;2.80;;;;;;;;;;5150421;27;20066;-90
2022/10/03 01:43:53;;;;;;;8.88;2.20;;;10.90;99.90;;;;;;5156123;27;20057;-94
2022/10/03 01:46:53;;;;;;;11.45;2.38;;;11.00;99.90;;;;;;5155836;27;20042;-93
2022/10/03 01:49:37;;;;;;;13.32;2.40;;;11.20;99.90;;;;;;5069536;28;20056;-96
2022/10/03 01:52:27;;;;;;;10.77;2.08;;;11.10;99.90;;;;;;5068335;28;20210;-86
2022/10/03 01:55:00;;;;;;;11.05;2.88;;;11.20;99.90;;;;;;5051419;28;20045;-85
2022/10/03 01:57:44;;;;;;;9.07;2.05;;;11.10;99.90;;;;;;5051295;28;20057;-85
2022/10/03 02:00:16;;;;;;;8.60;2.58;;;11.20;99.90;;;;;;5051280;28;20144;-86
2022/10/03 02:03:07;;;;;;;10.50;3.10;;;11.20;99.90;;;;;;5042325;28;20049;-86
2022/10/03 02:05:42;;;;;;;16.40;2.83;;;;;;;;;;5014973;28;20136;-82
2022/10/03 02:08:34;;;;;;;11.27;2.20;;;11.30;99.90;;;;;;5031347;28;20052;-81
2022/10/03 02:11:08;;;;;;;9.90;1.83;;;11.30;99.90;;;;;;5014503;28;20107;-80
2022/10/03 02:13:48;;;;;;;2.38;1.77;;;;;;;;;;5031305;28;20507;-79
2022/10/03 02:16:44;;;;;;;20.80;2.47;;;11.30;99.90;;;;;;5014880;28;20405;-80
2022/10/03 02:19:21;;;;;;;8.55;2.42;;;11.20;99.90;;;;;;5015059;28;20445;-85
2022/10/03 02:21:47;;;;;;;9.73;1.88;;;;;;;;;;5014436;28;20047;-84
2022/10/03 02:24:16;;;;;;;12.60;2.83;;;;;;;;;;5036873;27;20061;-84
2022/10/03 02:26:43;;;;;;;12.05;2.15;;;;;;;;;;5149987;27;20051;-84
2022/10/03 02:29:22;;;;;;;6.97;2.72;;;;;;;;;;5115545;27;20035;-84
2022/10/03 02:32:26;;;;;;;10.88;2.17;;;11.00;99.90;;;;;;5115629;27;20043;-84
2022/10/03 02:35:09;;;;;;;14.27;2.70;;;11.30;99.90;;;;;;5115871;27;20038;-84
2022/10/03 02:37:40;;;;;;;10.00;2.35;;;11.30;99.90;;;;;;5115596;27;20042;-85
2022/10/03 02:40:09;;;;;;;11.02;2.58;;;;;;;;;;5132764;27;20062;-85
2022/10/03 02:42:38;;;;;;;9.02;1.85;;;;;;;;;;5101278;27;20039;-86
2022/10/03 02:45:14;;;;;;;15.98;2.67;;;;;;;;;;5102809;27;20080;-89
2022/10/03 02:48:04;;;;;;;15.38;2.00;;;;;;;;;;5137042;27;20039;-85
2022/10/03 02:50:56;;;;;;;9.93;2.17;;;11.40;99.90;;;;;;5102937;27;20107;-84
2022/10/03 02:53:34;;;;;;;10.18;3.15;;;;;;;;;;5119467;27;20502;-86
2022/10/03 02:56:20;;;;;;;9.02;2.60;;;11.50;99.90;;;;;;5102727;27;20043;-93
2022/10/03 02:59:43;;;;;;;15.60;2.35;;;11.30;99.90;;;;;;5100582;27;20079;-89
2022/10/03 03:02:36;;;;;;;5.55;2.35;;;11.40;99.90;;;;;;5015316;28;20054;-86
2022/10/03 03:05:32;;;;;;;4.80;2.20;;;11.50;99.90;;;;;;4998616;28;20132;-93
2022/10/03 03:08:23;;;;;;;7.43;1.55;;;11.30;99.90;;;;;;4998893;28;20121;-93
2022/10/03 03:10:58;;;;;;;10.57;2.10;;;;;;;;;;4998660;28;20101;-89
2022/10/03 03:13:46;;;;;;;8.23;2.20;;;11.40;99.90;;;;;;4998670;28;20568;-96
2022/10/03 03:16:27;;;;;;;9.30;1.88;;;11.40;99.90;;;;;;5014840;28;20057;-96
2022/10/03 03:19:39;;;;;;;8.13;2.03;;;11.30;99.90;;;;;;4998477;28;20107;-87
2022/10/03 03:22:42;;;;;;;13.32;2.28;;;11.40;99.90;;;;;;4976183;28;20113;-96
2022/10/03 03:25:20;;;;;;;10.40;2.13;;;;;;;;;;4959864;28;20143;-91
2022/10/03 03:28:10;;;;;;;5.80;1.80;;;11.30;99.90;;;;;;4975788;28;20516;-92
2022/10/03 03:30:47;;;;;;;12.98;2.28;;;11.30;99.90;;;;;;4975247;28;20055;-87
2022/10/03 03:33:22;;;;;;;8.57;2.05;;;11.40;99.90;;;;;;5024371;28;20057;-90
2022/10/03 03:35:51;;;;;;;11.35;2.30;;;;;;;;;;5037537;28;20053;-96
2022/10/03 03:38:31;;;;;;;5.65;1.75;;;;;;;;;;5053843;28;20044;-96
2022/10/03 03:41:22;;;;;;;12.23;2.10;;;11.30;99.90;;;;;;5037859;28;20132;-93
2022/10/03 03:44:27;;;;;;;7.68;2.28;;;11.40;99.90;;;;;;5037378;28;20060;-94
2022/10/03 03:47:08;;;;;;;10.13;2.28;;;11.20;99.90;;;;;;5037620;28;20053;-96
2022/10/03 03:50:01;;;;;;;14.27;3.75;;;11.20;99.90;;;;;;5037207;28;20053;-96
2022/10/03 03:53:05;;;;;;;7.22;2.30;;;11.30;99.90;;;;;;5036595;28;20045;-96
2022/10/03 03:55:58;;;;;;;11.65;1.83;;;11.20;99.90;;;;;;5057236;28;20090;-84
2022/10/03 03:58:55;;;;;;;9.80;2.28;;;11.40;99.90;;;;;;5096997;28;20036;-84
2022/10/03 04:01:41;;;;;;;11.88;2.58;;;11.30;99.90;;;;;;5097150;28;20043;-85
2022/10/03 04:04:42;;;;;;;7.50;2.08;;;11.10;99.90;;;;;;5080177;28;20437;-84
2022/10/03 04:07:09;;;;;;;6.32;2.22;;;;;;;;;;5079288;28;20059;-84
2022/10/03 04:09:42;;;;;;;4.50;1.60;;;;;;;;;;5079840;28;20046;-84
2022/10/03 04:12:18;;;;;;;12.38;3.13;;;11.30;99.90;;;;;;5079950;28;20040;-85
2022/10/03 04:15:08;;;;;;;10.18;3.15;;;;;;;;;;5096592;28;20047;-85
2022/10/03 04:20:28;;;;;;;10.13;2.55;;;;;;;;;;5113645;28;20063;-85
2022/10/03 04:23:07;;;;;;;5.13;2.28;;;11.40;99.90;;;;;;5079866;28;20480;-80
2022/10/03 04:25:57;;;;;;;8.23;2.00;;;11.10;99.90;;;;;;5079476;28;20047;-82
2022/10/03 04:28:27;;;;;;;8.38;2.47;;;;;;;;;;5079676;28;20047;-80
2022/10/03 04:31:33;;;;;;;9.52;3.08;;;11.40;99.90;;;;;;5079221;28;20105;-79
2022/10/03 04:33:59;;;;;;;11.43;2.22;;;;;;;;;;5096480;28;20043;-81
2022/10/03 04:36:28;;;;;;;8.45;2.13;;;;;;;;;;5079252;28;20039;-85
2022/10/03 04:38:55;;;;;;;10.70;2.40;;;;;;;;;;5079313;28;20130;-84
2022/10/03 04:41:54;;;;;;;8.70;2.25;;;11.30;99.90;;;;;;5079209;28;20497;-86
2022/10/03 04:44:21;;;;;;;7.72;1.88;;;;;;;;;;5096280;28;20078;-84
2022/10/03 04:47:01;;;;;;;11.85;2.00;;;11.30;99.90;;;;;;5079365;28;20035;-83
2022/10/03 04:49:36;;;;;;;8.88;2.05;;;;;;;;;;5095988;28;20510;-85
2022/10/03 04:52:11;;;;;;;12.65;3.13;;;11.00;99.90;;;;;;5079402;28;20047;-82
2022/10/03 04:55:17;;;;;;;12.25;2.15;;;11.30;99.90;;;;;;5082349;28;20066;-96
2022/10/03 04:58:02;;;;;;;7.13;2.03;;;11.30;99.90;;;;;;5083021;28;20044;-88
2022/10/03 05:00:53;;;;;;;8.05;2.42;;;11.20;99.90;;;;;;5084017;28;20086;-96
2022/10/03 05:03:20;;;;;;;25.08;2.50;;;;;;;;;;5100684;28;20035;-96
2022/10/03 05:06:30;;;;;;;11.80;2.50;;;11.20;99.90;;;;;;5119581;28;20122;-96
2022/10/03 05:09:22;;;;;;;5.30;1.77;;;10.90;99.90;;;;;;5004606;28;20060;-96
2022/10/03 05:11:56;;;;;;;6.95;2.17;;;;;;;;;;5019056;28;20116;-96
2022/10/03 05:14:39;;;;;;;4.57;2.13;;;;;;;;;;4998362;28;20125;-96
2022/10/03 05:17:11;;;;;;;13.17;2.30;;;;;;;;;;4998249;28;20146;-96
2022/10/03 05:19:59;;;;;;;5.65;2.28;;;10.70;99.90;;;;;;4998271;28;20049;-96
2022/10/03 05:22:37;;;;;;;6.68;1.85;;;;;;;;;;4998028;28;20487;-96
2022/10/03 05:25:29;;;;;;;10.75;2.17;;;;;;;;;;5014043;28;20067;-96
2022/10/03 05:28:12;;;;;;;8.10;2.00;;;;;;;;;;4979737;28;20057;-96
2022/10/03 05:30:43;;;;;;;5.22;2.05;;;;;;;;;;4999998;28;20513;-96
2022/10/03 05:33:24;;;;;;;5.55;1.88;;;;;;;;;;4979205;28;20101;-96
2022/10/03 05:35:58;;;;;;;14.77;2.50;;;;;;;;;;4981652;28;20104;-96
2022/10/03 05:38:33;;;;;;;8.80;2.03;;;;;;;;;;4983352;28;20058;-96
2022/10/03 05:41:08;;;;;;;10.85;2.10;;;10.60;99.90;;;;;;4979096;28;20054;-96
2022/10/03 05:43:57;;;;;;;15.90;2.45;;;10.70;99.90;;;;;;4997328;28;20106;-96
2022/10/03 05:46:48;;;;;;;12.00;2.15;;;10.70;99.90;;;;;;5074988;28;20040;-82
2022/10/03 05:50:02;;;;;;;6.72;2.15;;;10.50;99.90;;;;;;5058256;28;20086;-85
2022/10/03 05:52:33;;;;;;;7.15;2.60;;;;;;;;;;5011127;28;20050;-84
2022/10/03 05:54:59;;;;;;;10.82;2.83;;;;;;;;;;4994946;28;20058;-85
2022/10/03 05:57:25;;;;;;;7.70;2.30;;;;;;;;;;4994708;28;20433;-84
2022/10/03 06:00:15;;;;;;;7.05;2.05;;;10.10;99.90;;;;;;4994550;28;20109;-85
2022/10/03 06:02:53;;;;;;;10.75;2.25;;;;;;;;;;4994520;28;20085;-85
2022/10/03 06:05:37;;;;;;;7.90;2.40;;;;;;;;;;4994624;28;20144;-85
2022/10/03 06:08:39;;;;;;;10.07;3.28;;;10.30;99.90;;;;;;4995121;28;20053;-85
2022/10/03 06:11:23;;;;;;;6.95;2.28;;;;;;;;;;4991200;28;20491;-85
2022/10/03 06:13:55;;;;;;;;;;;10.60;99.90;;;;;;5029196;28;20561;-82
2022/10/03 06:16:21;;;;;;;13.68;2.42;;;;;;;;;;5015500;28;19920;-82
2022/10/03 06:19:05;;;;;;;7.28;2.13;;;;;;;;;;5017822;28;20532;-83
2022/10/03 06:21:50;;;;;;;10.88;2.58;;;10.40;99.90;;;;;;5017826;28;20128;-80
2022/10/03 06:24:19;;;;;;;5.40;1.92;;;;;;;;;;5017743;28;20048;-82
2022/10/03 06:26:53;;;;;;;9.30;2.30;;;;;;;;;;5050323;28;20105;-83
2022/10/03 06:29:47;;;;;;;10.07;2.50;;;10.30;99.90;;;;;;5080566;28;20054;-83
2022/10/03 06:32:22;;;;;;;6.28;1.90;;;;;;;;;;5111592;27;20054;-81
2022/10/03 06:35:03;;;;;;;6.55;2.20;;;;;;;;;;5101967;27;20050;-85
2022/10/03 06:37:29;;;;;;;4.57;1.90;;;;;;;;;;5102170;27;20482;-82
2022/10/03 06:40:12;;;;;;;9.80;1.58;;;;;;;;;;5136989;27;20135;-80
2022/10/03 06:42:57;;;;;;;14.47;2.67;;;;;;;;;;5103201;27;20394;-86
2022/10/03 06:45:26;;;;;;;8.15;2.40;;;;;;;;;;5103057;27;20054;-83
2022/10/03 06:47:52;;;;;;;5.97;1.88;;;;;;;;;;5102912;27;20050;-83
2022/10/03 06:50:50;;;;;;;9.73;2.13;;;10.40;99.90;;;;;;5137226;27;20043;-85
2022/10/03 06:53:38;;;;;;;7.50;2.03;;;10.50;99.90;;;;;;5119522;27;20039;-81
2022/10/03 06:56:07;;;;;;;5.60;2.00;;;;;;;;;;5119241;27;20039;-83
2022/10/03 06:58:33;;;;;;;7.70;2.00;;;;;;;;;;5101630;27;20046;-81
2022/10/03 07:01:08;;;;;;;10.82;2.60;;;;;;;;;;5101124;27;20050;-83
2022/10/03 07:04:00;;;;;;;11.60;2.30;;;10.60;99.90;;;;;;5135748;27;20043;-84
2022/10/03 07:06:26;;;;;;;7.97;2.40;;;;;;;;;;5118117;27;20059;-84
2022/10/03 07:09:00;;;;;;;10.07;1.88;;;;;;;;;;5101521;27;20027;-84
2022/10/03 07:11:45;;;;;;;;;;;10.90;99.90;;;;;;5135893;27;20058;-81
2022/10/03 07:14:15;;;;;;;11.73;2.47;;;;;;;;;;5101236;27;20630;-84
2022/10/03 07:16:51;;;;;;;9.90;2.10;;;;;;;;;;5135710;27;20074;-85
2022/10/03 07:19:18;;;;;;;5.80;2.38;;;;;;;;;;5135528;27;20168;-84
2022/10/03 07:21:53;;;;;;;11.50;2.55;;;;;;;;;;5101149;27;20035;-85
2022/10/03 07:25:00;;;;;;;16.67;2.75;;;11.00;99.90;;;;;;5101024;27;20403;-82
2022/10/03 07:27:38;;;;;;;14.45;3.70;;;11.40;99.90;;;;;;5117713;27;20047;-81
2022/10/03 07:30:17;;;;;;;6.45;2.28;;;11.40;99.90;;;;;;5117775;27;20499;-81
2022/10/03 07:33:29;;;;;;;10.18;1.73;;;11.50;99.90;;;;;;5118008;27;20059;-82
2022/10/03 07:40:04;;;;;;;9.68;2.42;;;11.80;99.90;;;;;;5118017;27;20108;-84
2022/10/03 07:43:08;;;;;;;8.05;2.05;;;11.90;99.90;;;;;;5033026;28;20187;-84
2022/10/03 07:46:13;;;;;;;12.85;2.78;;;12.00;99.90;;;;;;4974418;28;20047;-83
2022/10/03 07:48:39;;;;;;;;;;;12.20;99.90;;;;;;4958838;28;20051;-82
2022/10/03 07:51:20;;;;;;;10.20;2.58;;;;;;;;;;4958213;28;20260;-83
2022/10/03 07:54:19;;;;;;;9.55;2.42;;;12.30;99.90;;;;;;4942210;28;20622;-81
2022/10/03 07:57:04;;;;;;;8.85;2.20;;;12.30;99.90;;;;;;4941925;28;20511;-84
2022/10/03 07:59:55;;;;;;;9.13;2.17;;;12.40;99.90;;;;;;4958025;28;20057;-82
2022/10/03 08:02:27;;;;;;;9.32;2.70;;;;;;;;;;4958123;28;20069;-84
2022/10/03 08:05:14;;;;;;;8.85;2.28;;;12.60;99.90;;;;;;4941632;28;20519;-85
2022/10/03 08:07:52;;;;;;;10.10;2.35;;;;;;;;;;4957530;28;20046;-82
2022/10/03 08:10:59;;;;;;;8.00;1.80;;;12.80;99.90;;;;;;4941898;28;20412;-83
2022/10/03 08:13:49;;;;;;;6.15;1.83;;;12.90;99.90;;;;;;4941601;28;20082;-83
2022/10/03 08:16:54;;;;;;;7.78;2.25;;;12.90;99.90;;;;;;5010032;28;20056;-84
2022/10/03 08:19:51;;;;;;;12.43;1.92;;;13.00;99.90;;;;;;5056775;28;20455;-86
2022/10/03 08:22:55;;;;;;;9.45;1.90;;;13.20;99.90;;;;;;5088835;27;20139;-83
2022/10/03 08:25:34;;;;;;;10.33;2.07;;;;;;;;;;5117339;27;20047;-82
2022/10/03 08:28:18;;;;;;;6.38;1.88;;;;;;;;;;5100710;27;20039;-84
2022/10/03 08:31:03;;;;;;;6.68;2.83;;;13.20;99.90;;;;;;5134103;27;20046;-85
2022/10/03 08:33:46;;;;;;;8.98;1.85;;;13.50;99.90;;;;;;5100432;27;20043;-84
2022/10/03 08:36:26;;;;;;;8.57;1.85;;;13.70;99.90;;;;;;5100439;27;20039;-84
2022/10/03 08:39:12;;;;;;;10.85;1.90;;;;;;;;;;5116870;27;20059;-83
2022/10/03 08:42:09;;;;;;;10.45;1.48;;;13.90;99.90;;;;;;5135073;27;20085;-82
2022/10/03 08:45:06;;;;;;;13.82;2.03;;;14.00;99.90;;;;;;5117114;27;20440;-82
2022/10/03 08:48:02;;;;;;;11.82;2.45;;;14.00;99.90;;;;;;5100461;27;20034;-82
2022/10/03 08:50:40;;;;;;;10.65;2.30;;;14.00;99.90;;;;;;5116567;27;20050;-85
2022/10/03 08:53:45;;;;;;;8.45;1.83;;;14.10;99.90;;;;;;5117162;27;20053;-85
2022/10/03 08:56:34;;;;;;;12.80;1.90;;;14.30;99.90;;;;;;5116964;27;20047;-84
2022/10/03 08:59:49;;;;;;;7.68;1.70;;;14.30;99.90;;;;;;5110856;28;20102;-85
2022/10/03 09:02:16;;;;;;;10.60;2.15;;;;;;;;;;5008969;28;20041;-82
2022/10/03 09:05:18;;;;;;;4.55;1.45;;;14.50;99.90;;;;;;5015587;28;20053;-82
2022/10/03 09:08:08;;;;;;;11.15;1.73;;;14.40;99.90;;;;;;5016095;28;20037;-85
2022/10/03 09:10:34;;;;;;;7.40;1.75;;;;;;;;;;5015275;28;20159;-84
2022/10/03 09:13:30;;;;;;;7.60;1.95;;;14.50;99.90;;;;;;5015543;28;20116;-83
2022/10/03 09:16:38;;;;;;;7.82;2.17;;;14.80;99.90;;;;;;5014931;28;20041;-82
2022/10/03 09:19:24;;;;;;;6.55;1.85;;;14.90;99.90;;;;;;4940750;28;20046;-84
2022/10/03 09:22:16;;;;;;;4.65;1.80;;;15.00;99.90;;;;;;4956774;28;20046;-84
2022/10/03 09:25:00;;;;;;;3.85;1.02;;;14.80;99.90;;;;;;4940835;28;20039;-85
2022/10/03 09:27:42;;;;;;;5.50;2.03;;;14.80;99.90;;;;;;4940947;28;20059;-85
2022/10/03 09:30:38;;;;;;;6.00;1.45;;;15.10;99.90;;;;;;4940077;28;20158;-84
2022/10/03 09:33:30;;;;;;;6.72;2.03;;;14.90;99.90;;;;;;4971935;28;20055;-85
2022/10/03 09:36:08;;;;;;;4.80;1.38;;;;;;;;;;4984723;28;20088;-85
2022/10/03 09:38:47;;;;;;;5.88;1.75;;;15.40;99.90;;;;;;5017909;28;20099;-86
2022/10/03 09:41:36;;;;;;;7.05;1.65;;;15.30;99.90;;;;;;5034466;28;20053;-86
2022/10/03 09:44:41;;;;;;;3.75;1.45;;;15.30;99.90;;;;;;5034382;28;20049;-85
2022/10/03 09:47:31;;;;;;;3.22;2.25;;;15.30;99.90;;;;;;4959617;28;20427;-85
2022/10/03 09:50:37;;;;;;;5.57;1.48;;;15.60;99.90;;;;;;4991616;28;20042;-84
2022/10/03 09:53:12;;;;;;;2.70;1.20;;;;;;;;;;4999453;28;20168;-86
2022/10/03 09:56:00;;;;;;;6.43;2.67;;;;;;;;;;5034941;28;20045;-85
2022/10/03 09:58:53;;;;;;;6.88;1.60;;;15.50;99.90;;;;;;5018659;28;20049;-86
2022/10/03 10:01:35;;;;;;;4.32;1.85;;;15.60;99.90;;;;;;5034816;28;20600;-85
2022/10/03 10:04:20;;;;;;;4.07;1.17;;;15.50;99.90;;;;;;5018545;28;20148;-83
2022/10/03 10:06:46;;;;;;;2.80;1.23;;;;;;;;;;5034925;28;20045;-85
2022/10/03 10:09:51;;;;;;;4.55;1.23;;;15.60;99.90;;;;;;5034948;28;20042;-85
2022/10/03 10:12:58;;;;;;;6.32;1.15;;;15.70;99.90;;;;;;5035183;28;20499;-83
2022/10/03 10:16:08;;;;;;;9.25;1.48;;;15.90;99.90;;;;;;5018536;28;20155;-83
2022/10/03 10:18:40;;;;;;;4.85;1.75;;;;;;;;;;5034255;28;20060;-83
2022/10/03 10:21:28;;;;;;;8.93;1.45;;;15.80;99.90;;;;;;5018059;28;20056;-82
2022/10/03 10:24:04;;;;;;;9.07;2.05;;;;;;;;;;5068028;27;20051;-85
2022/10/03 10:26:40;;;;;;;9.48;2.33;;;;;;;;;;5138610;27;20043;-84
2022/10/03 10:29:28;;;;;;;5.60;1.73;;;15.90;99.90;;;;;;5137730;27;20092;-84
2022/10/03 10:32:00;;;;;;;13.00;1.55;;;;;;;;;;5102227;27;20047;-83
2022/10/03 10:34:49;;;;;;;3.78;1.00;;;16.10;99.90;;;;;;5136633;27;20047;-82
2022/10/03 10:37:18;;;;;;;5.07;1.45;;;;;;;;;;5102157;27;20043;-83
2022/10/03 10:40:28;;;;;;;4.78;1.50;;;15.90;99.90;;;;;;5102539;27;20035;-86
2022/10/03 10:43:15;;;;;;;9.23;2.10;;;16.00;99.90;;;;;;5119080;27;20058;-86
2022/10/03 10:45:54;;;;;;;7.07;1.63;;;16.10;99.90;;;;;;5119387;27;20075;-83
2022/10/03 10:48:56;;;;;;;2.53;1.23;;;16.10;99.90;;;;;;5102014;27;20039;-85
2022/10/03 10:51:32;;;;;;;2.58;1.42;;;;;;;;;;5102039;27;20054;-81
2022/10/03 10:54:42;;;;;;;7.55;1.05;;;16.20;99.90;;;;;;5136884;27;20050;-82
2022/10/03 10:57:23;;;;;;;10.18;2.00;;;16.50;99.90;;;;;;5101640;27;20122;-85
2022/10/03 11:00:16;;;;;;;4.30;1.48;;;16.30;99.90;;;;;;5101760;27;20045;-84
2022/10/03 11:03:13;;;;;;;4.35;1.13;;;16.20;99.90;;;;;;5117991;27;20126;-85
2022/10/03 11:05:41;;;;;;;2.90;1.08;;;16.60;99.90;;;;;;5118625;27;20043;-84
2022/10/03 11:08:44;;;;;;;5.38;2.00;;;16.40;99.90;;;;;;5137278;27;20343;-85
2022/10/03 11:11:57;;;;;;;4.57;1.08;;;16.70;99.90;;;;;;5118635;27;20049;-85
2022/10/03 11:14:42;;;;;;;5.65;1.40;;;;;;;;;;5033992;28;20085;-79
2022/10/03 11:17:52;;;;;;;3.25;1.95;;;16.60;99.90;;;;;;5034496;28;20140;-83
2022/10/03 11:20:24;;;;;;;3.30;1.17;;;;;;;;;;5003396;28;20429;-82
2022/10/03 11:23:11;;;;;;;3.47;2.28;;;16.70;99.90;;;;;;5017015;28;20490;-84
2022/10/03 11:26:10;;;;;;;8.02;2.00;;;16.70;99.90;;;;;;5016793;28;20128;-85
2022/10/03 11:28:48;;;;;;;4.85;1.25;;;16.70;99.90;;;;;;5016784;28;20053;-84
2022/10/03 11:32:02;;;;;;;9.20;2.00;;;16.70;99.90;;;;;;5016605;28;20061;-86
2022/10/03 11:35:00;;;;;;;3.65;1.20;;;16.80;99.90;;;;;;5033289;28;20052;-85
2022/10/03 11:37:41;;;;;;;4.10;1.30;;;16.70;99.90;;;;;;5016944;28;20149;-86
2022/10/03 11:40:08;;;;;;;2.72;1.27;;;;;;;;;;5016819;28;20049;-86
2022/10/03 11:42:49;;;;;;;10.10;1.63;;;16.40;99.90;;;;;;5016939;28;20056;-84
2022/10/03 11:45:41;;;;;;;4.05;1.17;;;16.70;99.90;;;;;;5016915;28;20037;-85
2022/10/03 11:48:32;;;;;;;3.42;1.23;;;17.00;99.90;;;;;;5051690;27;20486;-83
2022/10/03 11:51:57;;;;;;;4.22;1.42;;;17.00;99.90;;;;;;5100708;27;20047;-84
2022/10/03 11:54:29;;;;;;;;;;;16.80;99.90;;;;;;5040008;28;20098;-86
2022/10/03 11:57:08;;;;;;;6.82;1.23;;;16.80;99.90;;;;;;5056839;28;19916;-86
2022/10/03 11:59:56;;;;;;;7.68;1.50;;;16.90;99.90;;;;;;5056042;28;20536;-84
2022/10/03 12:02:38;;;;;;;2.60;1.33;;;16.90;99.90;;;;;;5039186;28;20036;-84
2022/10/03 12:05:32;;;;;;;4.15;2.33;;;16.90;99.90;;;;;;5056602;28;20086;-84
2022/10/03 12:11:25;;;;;;;2.30;1.13;;;16.90;99.90;;;;;;5056167;28;20052;-81
2022/10/03 12:14:08;;;;;;;6.15;1.60;;;17.40;99.90;;;;;;5055609;28;20052;-84
2022/10/03 12:17:01;;;;;;;6.40;1.35;;;17.30;99.90;;;;;;5056013;28;20041;-84
2022/10/03 12:19:57;;;;;;;4.40;1.58;;;17.00;99.90;;;;;;5041352;28;20045;-84
2022/10/03 12:22:46;;;;;;;2.90;0.93;;;17.30;99.90;;;;;;5056561;28;20087;-84
2022/10/03 12:25:23;;;;;;;3.92;1.02;;;17.30;99.90;;;;;;5040814;28;20053;-81
2022/10/03 12:27:49;;;;;;;7.10;1.42;;;;;;;;;;5057822;28;20082;-81
2022/10/03 12:30:18;;;;;;;2.85;1.25;;;17.30;99.90;;;;;;5058297;27;20050;-84
2022/10/03 12:33:16;;;;;;;7.00;2.08;;;17.20;99.90;;;;;;5100683;27;20043;-80
2022/10/03 12:35:42;;;;;;;24.15;3.72;;;;;;;;;;5118986;27;20051;-84
2022/10/03 12:39:05;;;;;;;24.00;5.72;;;17.30;99.90;;;;;;5117877;27;20045;-85
2022/10/03 12:42:04;;;;;;;4.95;1.52;;;17.20;99.90;;;;;;5032018;28;20050;-85
2022/10/03 12:44:30;;;;;;;5.15;1.27;;;;;;;;;;5015678;28;20049;-85
2022/10/03 12:47:19;;;;;;;4.38;1.67;;;17.20;99.90;;;;;;5015369;28;20100;-85
2022/10/03 12:50:03;;;;;;;5.35;1.15;;;17.30;99.90;;;;;;5015715;28;20045;-86
2022/10/03 12:52:37;;;;;;;6.95;1.88;;;17.30;99.90;;;;;;5015840;28;20037;-84
2022/10/03 12:55:31;;;;;;;3.83;1.67;;;17.20;99.90;;;;;;5015961;28;20053;-86
2022/10/03 12:58:04;;;;;;;;;;;17.40;99.90;;;;;;5016538;28;20124;-86
2022/10/03 13:00:42;;;;;;;3.67;2.13;;;17.20;99.90;;;;;;4999062;28;19971;-86
2022/10/03 13:03:29;;;;;;;4.57;3.05;;;17.20;99.90;;;;;;5016058;28;20064;-82
2022/10/03 13:06:05;;;;;;;4.05;1.10;;;;;;;;;;5015557;28;20124;-84
2022/10/03 13:08:50;;;;;;;3.92;1.58;;;17.40;99.90;;;;;;5015515;28;20553;-84
2022/10/03 13:11:28;;;;;;;4.22;1.13;;;17.20;99.90;;;;;;5015614;28;20041;-84
2022/10/03 13:14:05;;;;;;;3.55;1.35;;;17.40;99.90;;;;;;5015728;28;20081;-84
2022/10/03 13:16:58;;;;;;;5.43;1.13;;;17.30;99.90;;;;;;5101072;28;20086;-86
2022/10/03 13:19:53;;;;;;;6.50;1.77;;;17.10;99.90;;;;;;5116784;27;20035;-84
2022/10/03 13:22:42;;;;;;;6.15;1.77;;;17.30;99.90;;;;;;5113514;28;20054;-83
2022/10/03 13:25:21;;;;;;;4.22;1.50;;;17.20;99.90;;;;;;5116500;28;20043;-83
2022/10/03 13:28:07;;;;;;;6.75;1.40;;;17.40;99.90;;;;;;5099283;27;20124;-85
2022/10/03 13:31:25;;;;;;;1.52;1.05;;;17.40;99.90;;;;;;5095869;28;20060;-84
2022/10/03 13:33:57;;;;;;;4.00;1.50;;;17.20;99.90;;;;;;5013505;28;20442;-85
2022/10/03 13:36:38;;;;;;;4.30;1.58;;;17.50;99.90;;;;;;5015119;28;20069;-85
2022/10/03 13:39:25;;;;;;;4.97;1.38;;;17.50;99.90;;;;;;5015193;28;20053;-84
2022/10/03 13:42:09;;;;;;;2.85;1.13;;;17.40;99.90;;;;;;5014966;28;20132;-85
2022/10/03 13:44:47;;;;;;;6.32;1.40;;;17.40;99.90;;;;;;5015031;28;20060;-85
2022/10/03 13:47:38;;;;;;;2.38;1.30;;;17.40;99.90;;;;;;5032294;28;20406;-84
2022/10/03 13:50:14;;;;;;;2.92;1.45;;;17.20;99.90;;;;;;5015683;28;20144;-85
2022/10/03 13:52:50;;;;;;;3.55;1.10;;;17.50;99.90;;;;;;5015231;28;20046;-85
2022/10/03 13:55:43;;;;;;;4.15;1.63;;;17.50;99.90;;;;;;5015271;28;20045;-86
2022/10/03 13:58:22;;;;;;;3.65;0.90;;;17.50;99.90;;;;;;5015143;28;20076;-85
2022/10/03 14:01:12;;;;;;;4.35;1.30;;;17.60;99.90;;;;;;5014979;28;20051;-83
2022/10/03 14:03:50;;;;;;;4.05;1.40;;;17.50;99.90;;;;;;5015834;28;20056;-84
2022/10/03 14:06:16;;;;;;;4.80;1.80;;;;;;;;;;5015698;28;20092;-85
2022/10/03 14:08:51;;;;;;;7.45;1.50;;;17.50;99.90;;;;;;5030604;28;20060;-79
2022/10/03 14:11:43;;;;;;;4.90;1.17;;;17.40;99.90;;;;;;5095119;28;20513;-79
2022/10/03 14:14:26;;;;;;;4.50;1.58;;;17.50;99.90;;;;;;5094673;28;20479;-80
2022/10/03 14:17:06;;;;;;;5.60;1.45;;;17.40;99.90;;;;;;5112733;28;20052;-82
2022/10/03 14:19:48;;;;;;;4.78;1.52;;;17.50;99.90;;;;;;5112847;28;20054;-83
2022/10/03 14:22:14;;;;;;;3.25;1.08;;;;;;;;;;5095828;28;20135;-84
2022/10/03 14:25:07;;;;;;;3.17;1.45;;;17.30;99.90;;;;;;5095986;28;20134;-82
2022/10/03 14:28:11;;;;;;;4.72;1.45;;;17.40;99.90;;;;;;5112672;28;20040;-83
2022/10/03 14:30:55;;;;;;;3.83;1.20;;;17.40;99.90;;;;;;5027540;28;20599;-84
2022/10/03 14:33:55;;;;;;;3.72;1.35;;;17.20;99.90;;;;;;4995590;28;20293;-81
2022/10/03 14:36:57;;;;;;;4.55;1.23;;;17.30;99.90;;;;;;5028996;28;20510;-82
2022/10/03 14:39:56;;;;;;;6.75;1.83;;;17.40;99.90;;;;;;5029787;28;20116;-84
2022/10/03 14:42:45;;;;;;;7.75;2.33;;;17.40;99.90;;;;;;5011715;28;20054;-82
2022/10/03 14:45:17;;;;;;;3.05;1.23;;;17.30;99.90;;;;;;5011941;28;20050;-83
2022/10/03 14:47:50;;;;;;;3.33;1.85;;;17.30;99.90;;;;;;4979037;28;20054;-83
2022/10/03 14:50:25;;;;;;;8.48;1.90;;;17.00;99.90;;;;;;4979233;28;20050;-81
2022/10/03 14:53:01;;;;;;;8.95;1.63;;;17.20;99.90;;;;;;4998450;28;20127;-83
2022/10/03 14:55:32;;;;;;;2.92;1.30;;;17.20;99.90;;;;;;4999031;28;20243;-82
2022/10/03 14:58:07;;;;;;;6.43;1.95;;;17.30;99.90;;;;;;4998621;28;20041;-85
2022/10/03 15:00:42;;;;;;;4.05;1.30;;;17.40;99.90;;;;;;5030777;28;20058;-83
2022/10/03 15:03:16;;;;;;;7.93;1.45;;;17.30;99.90;;;;;;5030654;28;20053;-82
2022/10/03 15:05:58;;;;;;;5.10;1.38;;;17.40;99.90;;;;;;5058526;28;20052;-82